sensor_id;sensor_type;location;lat;lon;timestamp;P1;durP1;ratioP1;P2;durP2;ratioP2
52047;SDS011;46904;49.438;8.752;2024-01-07T00:02:21;8.20;;;5.50;;
52047;SDS011;46904;49.438;8.752;2024-01-07T00:04:47;13.25;;;7.20;;
52047;SDS011;46904;49.438;8.752;2024-01-07T00:07:12;8.07;;;5.57;;
52047;SDS011;46904;49.438;8.752;2024-01-07T00:09:38;7.20;;;5.05;;
52047;SDS011;46904;49.438;8.752;2024-01-07T00:12:04;6.65;;;4.82;;
52047;SDS011;46904;49.438;8.752;2024-01-07T00:14:29;7.82;;;5.80;;
52047;SDS011;46904;49.438;8.752;2024-01-07T00:16:55;8.52;;;5.43;;
52047;SDS011;46904;49.438;8.752;2024-01-07T00:19:21;9.82;;;5.50;;
52047;SDS011;46904;49.438;8.752;2024-01-07T00:21:46;8.57;;;5.28;;
52047;SDS011;46904;49.438;8.752;2024-01-07T00:24:12;7.80;;;5.32;;
52047;SDS011;46904;49.438;8.752;2024-01-07T00:26:37;7.47;;;5.18;;
52047;SDS011;46904;49.438;8.752;2024-01-07T00:29:03;8.40;;;5.40;;
52047;SDS011;46904;49.438;8.752;2024-01-07T00:31:28;9.18;;;5.68;;
52047;SDS011;46904;49.438;8.752;2024-01-07T00:33:54;10.52;;;6.40;;
52047;SDS011;46904;49.438;8.752;2024-01-07T00:36:19;8.75;;;5.82;;
52047;SDS011;46904;49.438;8.752;2024-01-07T00:38:48;9.55;;;6.22;;
52047;SDS011;46904;49.438;8.752;2024-01-07T00:41:13;9.30;;;6.60;;
52047;SDS011;46904;49.438;8.752;2024-01-07T00:43:40;8.98;;;5.90;;
52047;SDS011;46904;49.438;8.752;2024-01-07T00:46:06;8.95;;;6.30;;
52047;SDS011;46904;49.438;8.752;2024-01-07T00:48:32;9.43;;;6.72;;
52047;SDS011;46904;49.438;8.752;2024-01-07T00:50:57;10.02;;;6.65;;
52047;SDS011;46904;49.438;8.752;2024-01-07T00:53:23;10.40;;;5.93;;
52047;SDS011;46904;49.438;8.752;2024-01-07T00:55:48;9.68;;;6.85;;
52047;SDS011;46904;49.438;8.752;2024-01-07T00:58:14;9.27;;;6.57;;
52047;SDS011;46904;49.438;8.752;2024-01-07T01:00:39;11.98;;;7.50;;
52047;SDS011;46904;49.438;8.752;2024-01-07T01:03:05;8.10;;;5.57;;
52047;SDS011;46904;49.438;8.752;2024-01-07T01:05:30;11.40;;;6.35;;
52047;SDS011;46904;49.438;8.752;2024-01-07T01:07:56;7.35;;;5.40;;
52047;SDS011;46904;49.438;8.752;2024-01-07T01:10:21;7.30;;;5.20;;
52047;SDS011;46904;49.438;8.752;2024-01-07T01:12:47;8.77;;;6.10;;
52047;SDS011;46904;49.438;8.752;2024-01-07T01:15:12;8.45;;;5.50;;
52047;SDS011;46904;49.438;8.752;2024-01-07T01:17:38;9.13;;;6.10;;
52047;SDS011;46904;49.438;8.752;2024-01-07T01:20:04;10.18;;;6.03;;
52047;SDS011;46904;49.438;8.752;2024-01-07T01:22:30;7.47;;;5.75;;
52047;SDS011;46904;49.438;8.752;2024-01-07T01:24:55;8.50;;;5.72;;
52047;SDS011;46904;49.438;8.752;2024-01-07T01:27:21;8.20;;;5.60;;
52047;SDS011;46904;49.438;8.752;2024-01-07T01:29:46;6.70;;;5.05;;
52047;SDS011;46904;49.438;8.752;2024-01-07T01:32:12;7.88;;;5.20;;
52047;SDS011;46904;49.438;8.752;2024-01-07T01:34:37;8.98;;;5.85;;
52047;SDS011;46904;49.438;8.752;2024-01-07T01:37:04;6.97;;;4.50;;
52047;SDS011;46904;49.438;8.752;2024-01-07T01:39:32;7.25;;;5.03;;
52047;SDS011;46904;49.438;8.752;2024-01-07T01:41:58;7.90;;;4.88;;
52047;SDS011;46904;49.438;8.752;2024-01-07T01:44:24;5.63;;;4.03;;
52047;SDS011;46904;49.438;8.752;2024-01-07T01:46:49;7.13;;;4.78;;
52047;SDS011;46904;49.438;8.752;2024-01-07T01:49:15;6.05;;;3.90;;
52047;SDS011;46904;49.438;8.752;2024-01-07T01:51:41;5.70;;;4.28;;
52047;SDS011;46904;49.438;8.752;2024-01-07T01:54:07;7.20;;;4.38;;
52047;SDS011;46904;49.438;8.752;2024-01-07T01:56:32;5.28;;;3.72;;
52047;SDS011;46904;49.438;8.752;2024-01-07T01:58:59;3.50;;;2.72;;
52047;SDS011;46904;49.438;8.752;2024-01-07T02:01:24;4.15;;;2.60;;
52047;SDS011;46904;49.438;8.752;2024-01-07T02:03:50;3.85;;;2.90;;
52047;SDS011;46904;49.438;8.752;2024-01-07T02:06:15;5.53;;;2.92;;
52047;SDS011;46904;49.438;8.752;2024-01-07T02:08:41;3.40;;;2.28;;
52047;SDS011;46904;49.438;8.752;2024-01-07T02:11:16;3.50;;;2.35;;
52047;SDS011;46904;49.438;8.752;2024-01-07T02:13:43;2.42;;;2.00;;
52047;SDS011;46904;49.438;8.752;2024-01-07T02:16:08;3.20;;;2.17;;
52047;SDS011;46904;49.438;8.752;2024-01-07T02:18:34;2.90;;;2.22;;
52047;SDS011;46904;49.438;8.752;2024-01-07T02:20:59;2.75;;;2.13;;
52047;SDS011;46904;49.438;8.752;2024-01-07T02:23:25;2.58;;;2.08;;
52047;SDS011;46904;49.438;8.752;2024-01-07T02:25:50;2.40;;;2.17;;
52047;SDS011;46904;49.438;8.752;2024-01-07T02:28:16;2.38;;;1.80;;
52047;SDS011;46904;49.438;8.752;2024-01-07T02:30:42;2.75;;;2.10;;
52047;SDS011;46904;49.438;8.752;2024-01-07T02:33:07;2.25;;;1.83;;
52047;SDS011;46904;49.438;8.752;2024-01-07T02:35:33;2.10;;;1.95;;
52047;SDS011;46904;49.438;8.752;2024-01-07T02:37:58;2.50;;;1.95;;
52047;SDS011;46904;49.438;8.752;2024-01-07T02:40:24;2.15;;;1.73;;
52047;SDS011;46904;49.438;8.752;2024-01-07T02:42:49;3.40;;;2.20;;
52047;SDS011;46904;49.438;8.752;2024-01-07T02:45:15;3.40;;;2.03;;
52047;SDS011;46904;49.438;8.752;2024-01-07T02:47:40;2.25;;;1.85;;
52047;SDS011;46904;49.438;8.752;2024-01-07T02:50:06;2.72;;;2.17;;
52047;SDS011;46904;49.438;8.752;2024-01-07T02:52:32;2.38;;;2.05;;
52047;SDS011;46904;49.438;8.752;2024-01-07T02:54:58;2.25;;;1.73;;
52047;SDS011;46904;49.438;8.752;2024-01-07T02:57:24;3.15;;;2.47;;
52047;SDS011;46904;49.438;8.752;2024-01-07T02:59:50;2.78;;;1.98;;
52047;SDS011;46904;49.438;8.752;2024-01-07T03:02:16;3.53;;;2.40;;
52047;SDS011;46904;49.438;8.752;2024-01-07T03:04:42;3.33;;;2.25;;
52047;SDS011;46904;49.438;8.752;2024-01-07T03:07:08;2.60;;;1.98;;
52047;SDS011;46904;49.438;8.752;2024-01-07T03:09:34;3.05;;;2.53;;
52047;SDS011;46904;49.438;8.752;2024-01-07T03:11:59;2.90;;;1.95;;
52047;SDS011;46904;49.438;8.752;2024-01-07T03:14:25;2.72;;;1.88;;
52047;SDS011;46904;49.438;8.752;2024-01-07T03:16:51;5.10;;;2.50;;
52047;SDS011;46904;49.438;8.752;2024-01-07T03:19:17;2.30;;;1.80;;
52047;SDS011;46904;49.438;8.752;2024-01-07T03:21:43;2.90;;;2.20;;
52047;SDS011;46904;49.438;8.752;2024-01-07T03:24:09;3.08;;;2.63;;
52047;SDS011;46904;49.438;8.752;2024-01-07T03:26:35;3.83;;;2.30;;
52047;SDS011;46904;49.438;8.752;2024-01-07T03:29:01;2.75;;;1.88;;
52047;SDS011;46904;49.438;8.752;2024-01-07T03:31:26;3.13;;;2.30;;
52047;SDS011;46904;49.438;8.752;2024-01-07T03:33:52;2.58;;;2.03;;
52047;SDS011;46904;49.438;8.752;2024-01-07T03:36:18;2.78;;;2.25;;
52047;SDS011;46904;49.438;8.752;2024-01-07T03:38:43;2.78;;;2.15;;
52047;SDS011;46904;49.438;8.752;2024-01-07T03:41:09;3.63;;;2.30;;
52047;SDS011;46904;49.438;8.752;2024-01-07T03:43:40;4.13;;;2.50;;
52047;SDS011;46904;49.438;8.752;2024-01-07T03:46:06;2.88;;;2.00;;
52047;SDS011;46904;49.438;8.752;2024-01-07T03:48:32;3.38;;;2.38;;
52047;SDS011;46904;49.438;8.752;2024-01-07T03:50:57;3.75;;;2.55;;
52047;SDS011;46904;49.438;8.752;2024-01-07T03:53:23;3.53;;;2.45;;
52047;SDS011;46904;49.438;8.752;2024-01-07T03:55:48;3.15;;;2.40;;
52047;SDS011;46904;49.438;8.752;2024-01-07T03:58:14;2.63;;;2.08;;
52047;SDS011;46904;49.438;8.752;2024-01-07T04:00:39;2.95;;;2.30;;
52047;SDS011;46904;49.438;8.752;2024-01-07T04:03:05;3.55;;;2.50;;
52047;SDS011;46904;49.438;8.752;2024-01-07T04:05:30;3.40;;;2.30;;
52047;SDS011;46904;49.438;8.752;2024-01-07T04:07:56;3.85;;;2.25;;
52047;SDS011;46904;49.438;8.752;2024-01-07T04:10:21;3.42;;;2.60;;
52047;SDS011;46904;49.438;8.752;2024-01-07T04:12:47;3.80;;;2.38;;
52047;SDS011;46904;49.438;8.752;2024-01-07T04:15:13;4.38;;;2.42;;
52047;SDS011;46904;49.438;8.752;2024-01-07T04:17:38;2.97;;;2.30;;
52047;SDS011;46904;49.438;8.752;2024-01-07T04:20:05;4.60;;;2.70;;
52047;SDS011;46904;49.438;8.752;2024-01-07T04:22:30;3.30;;;2.28;;
52047;SDS011;46904;49.438;8.752;2024-01-07T04:24:56;3.70;;;2.45;;
52047;SDS011;46904;49.438;8.752;2024-01-07T04:27:21;4.53;;;2.33;;
52047;SDS011;46904;49.438;8.752;2024-01-07T04:29:47;3.60;;;2.75;;
52047;SDS011;46904;49.438;8.752;2024-01-07T04:32:13;3.42;;;2.33;;
52047;SDS011;46904;49.438;8.752;2024-01-07T04:34:38;5.40;;;3.25;;
52047;SDS011;46904;49.438;8.752;2024-01-07T04:37:04;4.45;;;2.92;;
52047;SDS011;46904;49.438;8.752;2024-01-07T04:39:29;3.85;;;2.60;;
52047;SDS011;46904;49.438;8.752;2024-01-07T04:41:55;3.92;;;2.95;;
52047;SDS011;46904;49.438;8.752;2024-01-07T04:44:20;5.32;;;2.50;;
52047;SDS011;46904;49.438;8.752;2024-01-07T04:46:47;4.95;;;3.45;;
52047;SDS011;46904;49.438;8.752;2024-01-07T04:49:12;4.50;;;2.50;;
52047;SDS011;46904;49.438;8.752;2024-01-07T04:51:38;4.35;;;3.03;;
52047;SDS011;46904;49.438;8.752;2024-01-07T04:54:04;4.07;;;2.78;;
52047;SDS011;46904;49.438;8.752;2024-01-07T04:56:29;4.28;;;3.05;;
52047;SDS011;46904;49.438;8.752;2024-01-07T04:58:55;3.88;;;3.00;;
52047;SDS011;46904;49.438;8.752;2024-01-07T05:01:20;4.05;;;3.33;;
52047;SDS011;46904;49.438;8.752;2024-01-07T05:03:46;3.28;;;2.65;;
52047;SDS011;46904;49.438;8.752;2024-01-07T05:06:12;4.43;;;3.08;;
52047;SDS011;46904;49.438;8.752;2024-01-07T05:08:37;3.88;;;2.92;;
52047;SDS011;46904;49.438;8.752;2024-01-07T05:11:03;4.30;;;3.20;;
52047;SDS011;46904;49.438;8.752;2024-01-07T05:13:29;3.58;;;3.00;;
52047;SDS011;46904;49.438;8.752;2024-01-07T05:15:54;4.18;;;2.83;;
52047;SDS011;46904;49.438;8.752;2024-01-07T05:18:21;5.03;;;3.53;;
52047;SDS011;46904;49.438;8.752;2024-01-07T05:20:46;4.32;;;3.00;;
52047;SDS011;46904;49.438;8.752;2024-01-07T05:23:12;3.55;;;3.20;;
52047;SDS011;46904;49.438;8.752;2024-01-07T05:25:37;4.20;;;2.97;;
52047;SDS011;46904;49.438;8.752;2024-01-07T05:28:03;4.38;;;3.45;;
52047;SDS011;46904;49.438;8.752;2024-01-07T05:30:29;3.80;;;3.00;;
52047;SDS011;46904;49.438;8.752;2024-01-07T05:32:54;4.57;;;3.22;;
52047;SDS011;46904;49.438;8.752;2024-01-07T05:35:20;4.82;;;3.22;;
52047;SDS011;46904;49.438;8.752;2024-01-07T05:37:45;4.22;;;2.92;;
52047;SDS011;46904;49.438;8.752;2024-01-07T05:40:11;4.15;;;3.13;;
52047;SDS011;46904;49.438;8.752;2024-01-07T05:42:36;3.65;;;3.22;;
52047;SDS011;46904;49.438;8.752;2024-01-07T05:45:02;5.30;;;3.25;;
52047;SDS011;46904;49.438;8.752;2024-01-07T05:47:28;5.28;;;3.10;;
52047;SDS011;46904;49.438;8.752;2024-01-07T05:49:53;3.70;;;2.75;;
52047;SDS011;46904;49.438;8.752;2024-01-07T05:52:19;3.63;;;2.90;;
52047;SDS011;46904;49.438;8.752;2024-01-07T05:54:44;4.25;;;3.30;;
52047;SDS011;46904;49.438;8.752;2024-01-07T05:57:10;4.65;;;3.45;;
52047;SDS011;46904;49.438;8.752;2024-01-07T05:59:37;4.43;;;3.20;;
52047;SDS011;46904;49.438;8.752;2024-01-07T06:02:02;3.17;;;2.88;;
52047;SDS011;46904;49.438;8.752;2024-01-07T06:04:28;4.82;;;3.20;;
52047;SDS011;46904;49.438;8.752;2024-01-07T06:06:54;5.32;;;3.70;;
52047;SDS011;46904;49.438;8.752;2024-01-07T06:09:20;3.58;;;2.92;;
52047;SDS011;46904;49.438;8.752;2024-01-07T06:11:46;4.22;;;3.22;;
52047;SDS011;46904;49.438;8.752;2024-01-07T06:14:11;5.97;;;3.13;;
52047;SDS011;46904;49.438;8.752;2024-01-07T06:16:37;3.90;;;3.00;;
52047;SDS011;46904;49.438;8.752;2024-01-07T06:19:02;4.55;;;3.60;;
52047;SDS011;46904;49.438;8.752;2024-01-07T06:21:28;3.75;;;2.90;;
52047;SDS011;46904;49.438;8.752;2024-01-07T06:23:54;3.97;;;3.50;;
52047;SDS011;46904;49.438;8.752;2024-01-07T06:26:19;7.68;;;3.42;;
52047;SDS011;46904;49.438;8.752;2024-01-07T06:28:45;4.85;;;3.30;;
52047;SDS011;46904;49.438;8.752;2024-01-07T06:31:10;5.25;;;3.67;;
52047;SDS011;46904;49.438;8.752;2024-01-07T06:33:36;4.70;;;3.28;;
52047;SDS011;46904;49.438;8.752;2024-01-07T06:36:01;5.90;;;3.63;;
52047;SDS011;46904;49.438;8.752;2024-01-07T06:38:27;4.38;;;3.17;;
52047;SDS011;46904;49.438;8.752;2024-01-07T06:40:52;5.78;;;3.75;;
52047;SDS011;46904;49.438;8.752;2024-01-07T06:43:18;5.18;;;3.50;;
52047;SDS011;46904;49.438;8.752;2024-01-07T06:45:43;4.30;;;3.30;;
52047;SDS011;46904;49.438;8.752;2024-01-07T06:48:09;6.28;;;4.30;;
52047;SDS011;46904;49.438;8.752;2024-01-07T06:50:35;5.82;;;3.78;;
52047;SDS011;46904;49.438;8.752;2024-01-07T06:53:00;4.43;;;3.20;;
52047;SDS011;46904;49.438;8.752;2024-01-07T06:55:26;4.28;;;3.15;;
52047;SDS011;46904;49.438;8.752;2024-01-07T06:57:51;6.40;;;4.05;;
52047;SDS011;46904;49.438;8.752;2024-01-07T07:00:17;4.53;;;3.08;;
52047;SDS011;46904;49.438;8.752;2024-01-07T07:02:43;3.75;;;2.80;;
52047;SDS011;46904;49.438;8.752;2024-01-07T07:05:08;3.85;;;3.00;;
52047;SDS011;46904;49.438;8.752;2024-01-07T07:07:34;4.90;;;3.50;;
52047;SDS011;46904;49.438;8.752;2024-01-07T07:09:59;5.47;;;3.47;;
52047;SDS011;46904;49.438;8.752;2024-01-07T07:12:25;4.72;;;3.10;;
52047;SDS011;46904;49.438;8.752;2024-01-07T07:14:50;4.80;;;3.10;;
52047;SDS011;46904;49.438;8.752;2024-01-07T07:17:16;4.25;;;3.10;;
52047;SDS011;46904;49.438;8.752;2024-01-07T07:19:42;4.88;;;3.05;;
52047;SDS011;46904;49.438;8.752;2024-01-07T07:22:07;4.25;;;3.00;;
52047;SDS011;46904;49.438;8.752;2024-01-07T07:24:33;4.45;;;3.22;;
52047;SDS011;46904;49.438;8.752;2024-01-07T07:26:58;3.75;;;3.13;;
52047;SDS011;46904;49.438;8.752;2024-01-07T07:29:24;4.90;;;3.20;;
52047;SDS011;46904;49.438;8.752;2024-01-07T07:31:49;4.43;;;3.55;;
52047;SDS011;46904;49.438;8.752;2024-01-07T07:34:15;5.13;;;3.40;;
52047;SDS011;46904;49.438;8.752;2024-01-07T07:36:41;4.50;;;3.28;;
52047;SDS011;46904;49.438;8.752;2024-01-07T07:39:06;5.07;;;3.72;;
52047;SDS011;46904;49.438;8.752;2024-01-07T07:41:32;4.53;;;3.13;;
52047;SDS011;46904;49.438;8.752;2024-01-07T07:43:57;4.72;;;3.38;;
52047;SDS011;46904;49.438;8.752;2024-01-07T07:46:23;4.80;;;3.60;;
52047;SDS011;46904;49.438;8.752;2024-01-07T07:48:49;5.55;;;3.83;;
52047;SDS011;46904;49.438;8.752;2024-01-07T07:51:14;4.95;;;3.40;;
52047;SDS011;46904;49.438;8.752;2024-01-07T07:53:40;4.32;;;3.30;;
52047;SDS011;46904;49.438;8.752;2024-01-07T07:56:06;5.55;;;3.55;;
52047;SDS011;46904;49.438;8.752;2024-01-07T07:58:31;4.38;;;3.20;;
52047;SDS011;46904;49.438;8.752;2024-01-07T08:00:57;4.63;;;3.53;;
52047;SDS011;46904;49.438;8.752;2024-01-07T08:03:22;5.00;;;3.35;;
52047;SDS011;46904;49.438;8.752;2024-01-07T08:05:48;4.32;;;3.17;;
52047;SDS011;46904;49.438;8.752;2024-01-07T08:08:13;5.43;;;4.05;;
52047;SDS011;46904;49.438;8.752;2024-01-07T08:10:39;4.13;;;3.55;;
52047;SDS011;46904;49.438;8.752;2024-01-07T08:13:08;4.38;;;3.63;;
52047;SDS011;46904;49.438;8.752;2024-01-07T08:15:33;6.03;;;3.13;;
52047;SDS011;46904;49.438;8.752;2024-01-07T08:17:59;4.55;;;3.42;;
52047;SDS011;46904;49.438;8.752;2024-01-07T08:20:24;4.75;;;3.38;;
52047;SDS011;46904;49.438;8.752;2024-01-07T08:22:50;6.03;;;3.92;;
52047;SDS011;46904;49.438;8.752;2024-01-07T08:25:15;5.05;;;3.42;;
52047;SDS011;46904;49.438;8.752;2024-01-07T08:27:41;5.07;;;3.10;;
52047;SDS011;46904;49.438;8.752;2024-01-07T08:30:07;5.10;;;3.08;;
52047;SDS011;46904;49.438;8.752;2024-01-07T08:32:32;5.07;;;3.35;;
52047;SDS011;46904;49.438;8.752;2024-01-07T08:34:58;3.67;;;3.00;;
52047;SDS011;46904;49.438;8.752;2024-01-07T08:37:23;4.30;;;2.88;;
52047;SDS011;46904;49.438;8.752;2024-01-07T08:39:49;4.03;;;3.47;;
52047;SDS011;46904;49.438;8.752;2024-01-07T08:42:14;6.63;;;3.75;;
52047;SDS011;46904;49.438;8.752;2024-01-07T08:44:40;6.30;;;3.67;;
52047;SDS011;46904;49.438;8.752;2024-01-07T08:47:06;6.38;;;4.13;;
52047;SDS011;46904;49.438;8.752;2024-01-07T08:49:31;3.00;;;2.67;;
52047;SDS011;46904;49.438;8.752;2024-01-07T08:51:57;4.60;;;3.20;;
52047;SDS011;46904;49.438;8.752;2024-01-07T08:54:23;4.35;;;3.38;;
52047;SDS011;46904;49.438;8.752;2024-01-07T08:56:48;4.28;;;3.28;;
52047;SDS011;46904;49.438;8.752;2024-01-07T08:59:14;4.00;;;2.97;;
52047;SDS011;46904;49.438;8.752;2024-01-07T09:01:40;4.32;;;3.28;;
52047;SDS011;46904;49.438;8.752;2024-01-07T09:04:05;4.35;;;3.00;;
52047;SDS011;46904;49.438;8.752;2024-01-07T09:06:31;4.00;;;3.35;;
52047;SDS011;46904;49.438;8.752;2024-01-07T09:09:00;4.38;;;3.28;;
52047;SDS011;46904;49.438;8.752;2024-01-07T09:11:29;4.78;;;2.63;;
52047;SDS011;46904;49.438;8.752;2024-01-07T09:13:55;4.13;;;2.60;;
52047;SDS011;46904;49.438;8.752;2024-01-07T09:16:20;3.58;;;2.50;;
52047;SDS011;46904;49.438;8.752;2024-01-07T09:18:46;4.63;;;2.92;;
52047;SDS011;46904;49.438;8.752;2024-01-07T09:21:12;2.88;;;2.35;;
52047;SDS011;46904;49.438;8.752;2024-01-07T09:23:37;3.05;;;2.30;;
52047;SDS011;46904;49.438;8.752;2024-01-07T09:26:03;2.78;;;2.42;;
52047;SDS011;46904;49.438;8.752;2024-01-07T09:28:29;1.77;;;1.67;;
52047;SDS011;46904;49.438;8.752;2024-01-07T09:30:54;2.20;;;1.80;;
52047;SDS011;46904;49.438;8.752;2024-01-07T09:33:20;2.40;;;1.90;;
52047;SDS011;46904;49.438;8.752;2024-01-07T09:35:45;2.38;;;1.92;;
52047;SDS011;46904;49.438;8.752;2024-01-07T09:38:11;2.63;;;2.28;;
52047;SDS011;46904;49.438;8.752;2024-01-07T09:40:38;2.97;;;2.45;;
52047;SDS011;46904;49.438;8.752;2024-01-07T09:43:06;3.13;;;2.47;;
52047;SDS011;46904;49.438;8.752;2024-01-07T09:45:31;2.38;;;1.88;;
52047;SDS011;46904;49.438;8.752;2024-01-07T09:47:57;2.97;;;2.67;;
52047;SDS011;46904;49.438;8.752;2024-01-07T09:50:23;3.17;;;2.25;;
52047;SDS011;46904;49.438;8.752;2024-01-07T09:52:50;2.60;;;2.25;;
52047;SDS011;46904;49.438;8.752;2024-01-07T09:55:28;2.92;;;2.20;;
52047;SDS011;46904;49.438;8.752;2024-01-07T09:57:56;4.70;;;2.40;;
52047;SDS011;46904;49.438;8.752;2024-01-07T10:00:22;2.33;;;1.83;;
52047;SDS011;46904;49.438;8.752;2024-01-07T10:02:48;3.92;;;3.00;;
52047;SDS011;46904;49.438;8.752;2024-01-07T10:05:17;3.17;;;2.53;;
52047;SDS011;46904;49.438;8.752;2024-01-07T10:07:44;2.22;;;2.03;;
52047;SDS011;46904;49.438;8.752;2024-01-07T10:10:10;2.90;;;2.25;;
52047;SDS011;46904;49.438;8.752;2024-01-07T10:12:36;3.28;;;2.67;;
52047;SDS011;46904;49.438;8.752;2024-01-07T10:15:02;3.15;;;2.10;;
52047;SDS011;46904;49.438;8.752;2024-01-07T10:17:28;2.33;;;1.95;;
52047;SDS011;46904;49.438;8.752;2024-01-07T10:19:53;2.10;;;1.80;;
52047;SDS011;46904;49.438;8.752;2024-01-07T10:22:19;1.95;;;1.75;;
52047;SDS011;46904;49.438;8.752;2024-01-07T10:24:44;2.67;;;1.92;;
52047;SDS011;46904;49.438;8.752;2024-01-07T10:27:10;2.40;;;1.73;;
52047;SDS011;46904;49.438;8.752;2024-01-07T10:29:36;2.85;;;2.33;;
52047;SDS011;46904;49.438;8.752;2024-01-07T10:32:01;2.72;;;1.75;;
52047;SDS011;46904;49.438;8.752;2024-01-07T10:34:27;2.53;;;2.08;;
52047;SDS011;46904;49.438;8.752;2024-01-07T10:36:54;2.25;;;1.70;;
52047;SDS011;46904;49.438;8.752;2024-01-07T10:39:19;2.25;;;1.88;;
52047;SDS011;46904;49.438;8.752;2024-01-07T10:41:45;2.55;;;2.20;;
52047;SDS011;46904;49.438;8.752;2024-01-07T10:44:11;2.25;;;1.95;;
52047;SDS011;46904;49.438;8.752;2024-01-07T10:46:37;2.80;;;2.05;;
52047;SDS011;46904;49.438;8.752;2024-01-07T10:49:26;2.60;;;2.22;;
52047;SDS011;46904;49.438;8.752;2024-01-07T10:52:07;3.47;;;2.20;;
52047;SDS011;46904;49.438;8.752;2024-01-07T10:54:36;2.58;;;1.90;;
52047;SDS011;46904;49.438;8.752;2024-01-07T10:59:46;2.65;;;2.13;;
52047;SDS011;46904;49.438;8.752;2024-01-07T11:02:12;2.97;;;2.20;;
52047;SDS011;46904;49.438;8.752;2024-01-07T11:07:32;2.67;;;2.00;;
52047;SDS011;46904;49.438;8.752;2024-01-07T11:12:31;2.40;;;2.20;;
52047;SDS011;46904;49.438;8.752;2024-01-07T11:15:00;3.72;;;2.80;;
52047;SDS011;46904;49.438;8.752;2024-01-07T11:17:42;2.80;;;2.40;;
52047;SDS011;46904;49.438;8.752;2024-01-07T12:51:19;5.78;;;4.20;;
52047;SDS011;46904;49.438;8.752;2024-01-07T12:53:45;5.05;;;4.07;;
52047;SDS011;46904;49.438;8.752;2024-01-07T12:56:10;6.13;;;4.60;;
52047;SDS011;46904;49.438;8.752;2024-01-07T12:58:36;4.85;;;4.03;;
52047;SDS011;46904;49.438;8.752;2024-01-07T13:01:02;6.20;;;4.45;;
52047;SDS011;46904;49.438;8.752;2024-01-07T13:03:31;4.75;;;3.72;;
52047;SDS011;46904;49.438;8.752;2024-01-07T13:05:57;5.90;;;3.88;;
52047;SDS011;46904;49.438;8.752;2024-01-07T13:08:23;4.53;;;3.50;;
52047;SDS011;46904;49.438;8.752;2024-01-07T13:10:51;5.05;;;4.10;;
52047;SDS011;46904;49.438;8.752;2024-01-07T13:13:20;5.00;;;4.32;;
52047;SDS011;46904;49.438;8.752;2024-01-07T13:16:04;5.47;;;3.85;;
52047;SDS011;46904;49.438;8.752;2024-01-07T13:18:30;6.40;;;3.85;;
52047;SDS011;46904;49.438;8.752;2024-01-07T13:21:03;4.82;;;3.95;;
52047;SDS011;46904;49.438;8.752;2024-01-07T13:26:54;5.28;;;3.85;;
52047;SDS011;46904;49.438;8.752;2024-01-07T13:29:26;6.85;;;4.38;;
52047;SDS011;46904;49.438;8.752;2024-01-07T13:32:10;6.72;;;4.97;;
52047;SDS011;46904;49.438;8.752;2024-01-07T13:34:36;6.47;;;4.63;;
52047;SDS011;46904;49.438;8.752;2024-01-07T13:37:07;5.90;;;4.78;;
52047;SDS011;46904;49.438;8.752;2024-01-07T13:39:41;5.80;;;4.45;;
52047;SDS011;46904;49.438;8.752;2024-01-07T13:42:07;6.53;;;4.45;;
52047;SDS011;46904;49.438;8.752;2024-01-07T13:47:38;6.00;;;4.83;;
52047;SDS011;46904;49.438;8.752;2024-01-07T13:53:24;8.52;;;5.05;;
52047;SDS011;46904;49.438;8.752;2024-01-07T13:55:50;7.60;;;4.47;;
52047;SDS011;46904;49.438;8.752;2024-01-07T13:58:25;6.22;;;4.82;;
52047;SDS011;46904;49.438;8.752;2024-01-07T14:00:52;5.60;;;4.40;;
52047;SDS011;46904;49.438;8.752;2024-01-07T14:03:19;7.30;;;4.40;;
52047;SDS011;46904;49.438;8.752;2024-01-07T14:05:45;6.13;;;4.18;;
52047;SDS011;46904;49.438;8.752;2024-01-07T14:08:14;6.55;;;4.68;;
52047;SDS011;46904;49.438;8.752;2024-01-07T14:10:42;6.13;;;4.60;;
52047;SDS011;46904;49.438;8.752;2024-01-07T14:13:29;7.32;;;4.97;;
52047;SDS011;46904;49.438;8.752;2024-01-07T14:16:05;6.05;;;4.05;;
52047;SDS011;46904;49.438;8.752;2024-01-07T14:18:30;5.45;;;3.95;;
52047;SDS011;46904;49.438;8.752;2024-01-07T14:21:01;6.82;;;4.68;;
52047;SDS011;46904;49.438;8.752;2024-01-07T14:23:49;5.30;;;4.10;;
52047;SDS011;46904;49.438;8.752;2024-01-07T14:29:30;5.72;;;4.07;;
52047;SDS011;46904;49.438;8.752;2024-01-07T14:32:08;5.40;;;4.35;;
52047;SDS011;46904;49.438;8.752;2024-01-07T14:34:33;6.25;;;4.10;;
52047;SDS011;46904;49.438;8.752;2024-01-07T14:37:05;8.00;;;5.53;;
52047;SDS011;46904;49.438;8.752;2024-01-07T14:39:31;5.75;;;4.13;;
52047;SDS011;46904;49.438;8.752;2024-01-07T14:42:03;5.55;;;3.92;;
52047;SDS011;46904;49.438;8.752;2024-01-07T14:44:29;6.95;;;4.55;;
52047;SDS011;46904;49.438;8.752;2024-01-07T14:46:55;6.20;;;4.13;;
52047;SDS011;46904;49.438;8.752;2024-01-07T14:49:26;6.57;;;4.65;;
52047;SDS011;46904;49.438;8.752;2024-01-07T14:51:52;6.78;;;4.40;;
52047;SDS011;46904;49.438;8.752;2024-01-07T14:54:18;5.47;;;4.28;;
52047;SDS011;46904;49.438;8.752;2024-01-07T14:59:38;7.40;;;4.55;;
52047;SDS011;46904;49.438;8.752;2024-01-07T15:02:07;7.70;;;4.70;;
52047;SDS011;46904;49.438;8.752;2024-01-07T15:04:33;5.82;;;4.30;;
52047;SDS011;46904;49.438;8.752;2024-01-07T15:06:59;5.57;;;3.88;;
52047;SDS011;46904;49.438;8.752;2024-01-07T15:09:30;5.70;;;3.83;;
52047;SDS011;46904;49.438;8.752;2024-01-07T15:11:59;6.25;;;4.30;;
52047;SDS011;46904;49.438;8.752;2024-01-07T15:14:25;6.72;;;4.03;;
52047;SDS011;46904;49.438;8.752;2024-01-07T15:16:51;6.13;;;4.10;;
52047;SDS011;46904;49.438;8.752;2024-01-07T15:19:17;6.78;;;4.38;;
52047;SDS011;46904;49.438;8.752;2024-01-07T15:21:44;5.30;;;3.60;;
52047;SDS011;46904;49.438;8.752;2024-01-07T15:24:10;8.07;;;4.50;;
52047;SDS011;46904;49.438;8.752;2024-01-07T15:26:35;5.70;;;3.75;;
52047;SDS011;46904;49.438;8.752;2024-01-07T15:29:01;7.00;;;4.20;;
52047;SDS011;46904;49.438;8.752;2024-01-07T15:31:26;5.57;;;3.85;;
52047;SDS011;46904;49.438;8.752;2024-01-07T15:33:52;7.63;;;4.72;;
52047;SDS011;46904;49.438;8.752;2024-01-07T15:36:18;6.95;;;4.55;;
52047;SDS011;46904;49.438;8.752;2024-01-07T15:38:44;7.82;;;4.97;;
52047;SDS011;46904;49.438;8.752;2024-01-07T15:41:10;10.70;;;6.05;;
52047;SDS011;46904;49.438;8.752;2024-01-07T15:43:36;6.32;;;4.90;;
52047;SDS011;46904;49.438;8.752;2024-01-07T15:46:02;9.23;;;4.90;;
52047;SDS011;46904;49.438;8.752;2024-01-07T15:48:28;7.38;;;4.90;;
52047;SDS011;46904;49.438;8.752;2024-01-07T15:53:46;6.93;;;4.35;;
52047;SDS011;46904;49.438;8.752;2024-01-07T15:56:21;6.57;;;4.40;;
52047;SDS011;46904;49.438;8.752;2024-01-07T15:59:06;6.22;;;4.57;;
52047;SDS011;46904;49.438;8.752;2024-01-07T16:01:32;6.50;;;4.70;;
52047;SDS011;46904;49.438;8.752;2024-01-07T16:04:15;8.30;;;5.60;;
52047;SDS011;46904;49.438;8.752;2024-01-07T16:06:41;8.15;;;4.75;;
52047;SDS011;46904;49.438;8.752;2024-01-07T16:09:08;5.15;;;4.00;;
52047;SDS011;46904;49.438;8.752;2024-01-07T16:11:33;6.25;;;4.07;;
52047;SDS011;46904;49.438;8.752;2024-01-07T16:13:59;7.40;;;4.25;;
52047;SDS011;46904;49.438;8.752;2024-01-07T16:16:25;5.07;;;3.55;;
52047;SDS011;46904;49.438;8.752;2024-01-07T16:18:52;6.03;;;3.97;;
52047;SDS011;46904;49.438;8.752;2024-01-07T16:21:18;5.88;;;3.80;;
52047;SDS011;46904;49.438;8.752;2024-01-07T16:23:43;6.28;;;4.45;;
52047;SDS011;46904;49.438;8.752;2024-01-07T16:26:09;9.95;;;5.68;;
52047;SDS011;46904;49.438;8.752;2024-01-07T16:28:40;7.63;;;4.80;;
52047;SDS011;46904;49.438;8.752;2024-01-07T16:31:06;9.95;;;5.80;;
52047;SDS011;46904;49.438;8.752;2024-01-07T16:33:38;6.70;;;4.50;;
52047;SDS011;46904;49.438;8.752;2024-01-07T16:36:10;6.53;;;3.75;;
52047;SDS011;46904;49.438;8.752;2024-01-07T16:38:36;6.18;;;4.28;;
52047;SDS011;46904;49.438;8.752;2024-01-07T16:41:01;5.75;;;3.55;;
52047;SDS011;46904;49.438;8.752;2024-01-07T16:43:47;6.05;;;3.80;;